sensor_id;sensor_type;location;lat;lon;timestamp;P1;durP1;ratioP1;P2;durP2;ratioP2
69621;SDS011;56841;55.964;37.674;2023-06-14T00:00:18;11.80;;;4.80;;
69621;SDS011;56841;55.964;37.674;2023-06-14T00:02:45;11.65;;;5.35;;
69621;SDS011;56841;55.964;37.674;2023-06-14T00:05:10;12.18;;;5.20;;
69621;SDS011;56841;55.964;37.674;2023-06-14T00:07:39;14.73;;;5.10;;
69621;SDS011;56841;55.964;37.674;2023-06-14T00:10:09;12.88;;;4.95;;
69621;SDS011;56841;55.964;37.674;2023-06-14T00:12:36;12.60;;;5.30;;
69621;SDS011;56841;55.964;37.674;2023-06-14T00:15:02;14.50;;;5.90;;
69621;SDS011;56841;55.964;37.674;2023-06-14T00:17:29;16.42;;;6.00;;
69621;SDS011;56841;55.964;37.674;2023-06-14T00:19:56;14.15;;;5.95;;
69621;SDS011;56841;55.964;37.674;2023-06-14T00:22:22;14.20;;;5.82;;
69621;SDS011;56841;55.964;37.674;2023-06-14T00:24:50;15.63;;;5.82;;
69621;SDS011;56841;55.964;37.674;2023-06-14T00:27:16;18.30;;;6.65;;
69621;SDS011;56841;55.964;37.674;2023-06-14T00:29:42;17.63;;;6.05;;
69621;SDS011;56841;55.964;37.674;2023-06-14T00:32:07;16.85;;;6.03;;
69621;SDS011;56841;55.964;37.674;2023-06-14T00:34:33;11.50;;;5.53;;
69621;SDS011;56841;55.964;37.674;2023-06-14T00:37:00;10.85;;;4.85;;
69621;SDS011;56841;55.964;37.674;2023-06-14T00:39:25;10.80;;;4.93;;
69621;SDS011;56841;55.964;37.674;2023-06-14T00:41:51;13.77;;;5.03;;
69621;SDS011;56841;55.964;37.674;2023-06-14T00:44:17;14.38;;;5.60;;
69621;SDS011;56841;55.964;37.674;2023-06-14T00:46:43;13.32;;;5.57;;
69621;SDS011;56841;55.964;37.674;2023-06-14T00:49:10;12.02;;;5.03;;
69621;SDS011;56841;55.964;37.674;2023-06-14T00:51:40;11.07;;;4.68;;
69621;SDS011;56841;55.964;37.674;2023-06-14T00:54:07;10.75;;;4.95;;
69621;SDS011;56841;55.964;37.674;2023-06-14T00:56:35;11.98;;;4.75;;
69621;SDS011;56841;55.964;37.674;2023-06-14T00:59:02;11.27;;;4.93;;
69621;SDS011;56841;55.964;37.674;2023-06-14T01:01:30;12.40;;;5.10;;
69621;SDS011;56841;55.964;37.674;2023-06-14T01:03:59;11.35;;;5.35;;
69621;SDS011;56841;55.964;37.674;2023-06-14T01:06:45;15.10;;;6.07;;
69621;SDS011;56841;55.964;37.674;2023-06-14T01:14:39;11.63;;;5.68;;
69621;SDS011;56841;55.964;37.674;2023-06-14T01:17:07;16.98;;;5.45;;
69621;SDS011;56841;55.964;37.674;2023-06-14T01:19:43;12.95;;;5.22;;
69621;SDS011;56841;55.964;37.674;2023-06-14T01:22:13;11.95;;;5.43;;
69621;SDS011;56841;55.964;37.674;2023-06-14T01:24:40;11.75;;;5.32;;
69621;SDS011;56841;55.964;37.674;2023-06-14T01:27:10;11.32;;;4.93;;
69621;SDS011;56841;55.964;37.674;2023-06-14T01:29:38;8.85;;;4.43;;
69621;SDS011;56841;55.964;37.674;2023-06-14T01:32:04;9.73;;;4.45;;
69621;SDS011;56841;55.964;37.674;2023-06-14T01:34:31;9.00;;;4.40;;
69621;SDS011;56841;55.964;37.674;2023-06-14T01:36:57;8.30;;;4.20;;
69621;SDS011;56841;55.964;37.674;2023-06-14T01:39:26;8.90;;;4.05;;
69621;SDS011;56841;55.964;37.674;2023-06-14T01:41:54;9.40;;;3.80;;
69621;SDS011;56841;55.964;37.674;2023-06-14T01:44:20;11.30;;;3.90;;
69621;SDS011;56841;55.964;37.674;2023-06-14T01:46:47;10.23;;;4.60;;
69621;SDS011;56841;55.964;37.674;2023-06-14T01:49:13;7.78;;;4.00;;
69621;SDS011;56841;55.964;37.674;2023-06-14T01:51:39;10.52;;;4.50;;
69621;SDS011;56841;55.964;37.674;2023-06-14T01:54:05;10.45;;;4.22;;
69621;SDS011;56841;55.964;37.674;2023-06-14T01:56:30;33.97;;;9.63;;
69621;SDS011;56841;55.964;37.674;2023-06-14T01:58:58;17.92;;;5.90;;
69621;SDS011;56841;55.964;37.674;2023-06-14T02:01:24;12.07;;;4.75;;
69621;SDS011;56841;55.964;37.674;2023-06-14T02:03:50;11.77;;;4.72;;
69621;SDS011;56841;55.964;37.674;2023-06-14T02:06:16;13.10;;;4.80;;
69621;SDS011;56841;55.964;37.674;2023-06-14T02:08:42;12.25;;;5.00;;
69621;SDS011;56841;55.964;37.674;2023-06-14T02:11:08;12.73;;;5.00;;
69621;SDS011;56841;55.964;37.674;2023-06-14T02:13:34;12.27;;;4.85;;
69621;SDS011;56841;55.964;37.674;2023-06-14T02:16:00;11.23;;;5.00;;
69621;SDS011;56841;55.964;37.674;2023-06-14T02:18:27;10.35;;;4.45;;
69621;SDS011;56841;55.964;37.674;2023-06-14T02:21:14;11.32;;;4.32;;
69621;SDS011;56841;55.964;37.674;2023-06-14T02:23:40;12.60;;;4.53;;
69621;SDS011;56841;55.964;37.674;2023-06-14T02:26:06;8.32;;;4.45;;
69621;SDS011;56841;55.964;37.674;2023-06-14T02:28:33;9.63;;;4.50;;
69621;SDS011;56841;55.964;37.674;2023-06-14T02:31:00;8.75;;;3.80;;
69621;SDS011;56841;55.964;37.674;2023-06-14T02:33:26;13.40;;;4.50;;
69621;SDS011;56841;55.964;37.674;2023-06-14T02:35:52;11.32;;;4.25;;
69621;SDS011;56841;55.964;37.674;2023-06-14T02:38:18;12.38;;;4.85;;
69621;SDS011;56841;55.964;37.674;2023-06-14T02:40:43;10.02;;;4.03;;
69621;SDS011;56841;55.964;37.674;2023-06-14T02:43:09;9.25;;;4.03;;
69621;SDS011;56841;55.964;37.674;2023-06-14T02:45:35;10.00;;;4.35;;
69621;SDS011;56841;55.964;37.674;2023-06-14T02:48:00;8.45;;;3.90;;
69621;SDS011;56841;55.964;37.674;2023-06-14T02:50:26;8.63;;;3.70;;
69621;SDS011;56841;55.964;37.674;2023-06-14T02:52:53;10.52;;;3.80;;
69621;SDS011;56841;55.964;37.674;2023-06-14T02:55:21;10.48;;;3.63;;
69621;SDS011;56841;55.964;37.674;2023-06-14T02:57:47;7.85;;;3.53;;
69621;SDS011;56841;55.964;37.674;2023-06-14T03:00:13;7.57;;;3.80;;
69621;SDS011;56841;55.964;37.674;2023-06-14T03:02:41;9.25;;;4.30;;
69621;SDS011;56841;55.964;37.674;2023-06-14T03:05:08;7.47;;;4.00;;
69621;SDS011;56841;55.964;37.674;2023-06-14T03:07:35;8.45;;;3.80;;
69621;SDS011;56841;55.964;37.674;2023-06-14T03:10:09;8.73;;;3.63;;
69621;SDS011;56841;55.964;37.674;2023-06-14T03:12:39;7.05;;;3.50;;
69621;SDS011;56841;55.964;37.674;2023-06-14T03:15:05;8.13;;;3.35;;
69621;SDS011;56841;55.964;37.674;2023-06-14T03:17:35;7.35;;;3.80;;
69621;SDS011;56841;55.964;37.674;2023-06-14T03:20:05;8.27;;;3.50;;
69621;SDS011;56841;55.964;37.674;2023-06-14T03:22:31;8.75;;;3.90;;
69621;SDS011;56841;55.964;37.674;2023-06-14T03:24:59;7.93;;;3.38;;
69621;SDS011;56841;55.964;37.674;2023-06-14T03:27:26;8.77;;;3.53;;
69621;SDS011;56841;55.964;37.674;2023-06-14T03:29:54;8.55;;;3.80;;
69621;SDS011;56841;55.964;37.674;2023-06-14T03:32:20;8.88;;;3.63;;
69621;SDS011;56841;55.964;37.674;2023-06-14T03:34:46;6.65;;;3.53;;
69621;SDS011;56841;55.964;37.674;2023-06-14T03:37:17;8.48;;;3.67;;
69621;SDS011;56841;55.964;37.674;2023-06-14T03:39:44;8.65;;;3.63;;
69621;SDS011;56841;55.964;37.674;2023-06-14T03:42:14;7.70;;;4.00;;
69621;SDS011;56841;55.964;37.674;2023-06-14T03:44:41;7.35;;;3.65;;
69621;SDS011;56841;55.964;37.674;2023-06-14T03:47:07;8.35;;;3.50;;
69621;SDS011;56841;55.964;37.674;2023-06-14T03:49:33;9.35;;;3.58;;
69621;SDS011;56841;55.964;37.674;2023-06-14T03:51:58;8.20;;;3.53;;
69621;SDS011;56841;55.964;37.674;2023-06-14T03:54:26;8.98;;;3.45;;
69621;SDS011;56841;55.964;37.674;2023-06-14T03:56:53;7.78;;;3.70;;
69621;SDS011;56841;55.964;37.674;2023-06-14T03:59:18;8.80;;;4.10;;
69621;SDS011;56841;55.964;37.674;2023-06-14T04:01:45;9.10;;;3.83;;
69621;SDS011;56841;55.964;37.674;2023-06-14T04:04:14;8.70;;;4.20;;
69621;SDS011;56841;55.964;37.674;2023-06-14T04:06:42;7.70;;;3.85;;
69621;SDS011;56841;55.964;37.674;2023-06-14T04:09:09;9.57;;;3.80;;
69621;SDS011;56841;55.964;37.674;2023-06-14T04:11:34;9.32;;;3.60;;
69621;SDS011;56841;55.964;37.674;2023-06-14T04:14:01;9.63;;;3.35;;
69621;SDS011;56841;55.964;37.674;2023-06-14T04:16:28;7.28;;;3.28;;
69621;SDS011;56841;55.964;37.674;2023-06-14T04:18:54;8.80;;;3.30;;
69621;SDS011;56841;55.964;37.674;2023-06-14T04:21:21;8.20;;;3.40;;
69621;SDS011;56841;55.964;37.674;2023-06-14T04:23:50;7.63;;;3.40;;
69621;SDS011;56841;55.964;37.674;2023-06-14T04:26:18;6.47;;;3.40;;
69621;SDS011;56841;55.964;37.674;2023-06-14T04:28:45;6.85;;;3.30;;
69621;SDS011;56841;55.964;37.674;2023-06-14T04:31:12;7.40;;;3.60;;
69621;SDS011;56841;55.964;37.674;2023-06-14T04:33:38;7.85;;;3.58;;
69621;SDS011;56841;55.964;37.674;2023-06-14T04:38:38;9.27;;;4.20;;
69621;SDS011;56841;55.964;37.674;2023-06-14T04:41:04;6.50;;;3.13;;
69621;SDS011;56841;55.964;37.674;2023-06-14T04:43:31;8.73;;;3.70;;
69621;SDS011;56841;55.964;37.674;2023-06-14T04:46:02;8.60;;;3.50;;
69621;SDS011;56841;55.964;37.674;2023-06-14T04:48:30;6.72;;;3.38;;
69621;SDS011;56841;55.964;37.674;2023-06-14T04:50:56;7.22;;;3.83;;
69621;SDS011;56841;55.964;37.674;2023-06-14T04:53:22;8.35;;;3.40;;
69621;SDS011;56841;55.964;37.674;2023-06-14T04:55:50;10.60;;;3.70;;
69621;SDS011;56841;55.964;37.674;2023-06-14T04:58:17;9.50;;;3.50;;
69621;SDS011;56841;55.964;37.674;2023-06-14T05:00:42;6.55;;;3.35;;
69621;SDS011;56841;55.964;37.674;2023-06-14T05:03:09;7.72;;;3.65;;
69621;SDS011;56841;55.964;37.674;2023-06-14T05:05:41;8.10;;;3.55;;
69621;SDS011;56841;55.964;37.674;2023-06-14T05:08:07;10.82;;;3.90;;
69621;SDS011;56841;55.964;37.674;2023-06-14T05:10:34;10.48;;;3.58;;
69621;SDS011;56841;55.964;37.674;2023-06-14T05:13:01;8.88;;;3.30;;
69621;SDS011;56841;55.964;37.674;2023-06-14T05:15:29;7.25;;;3.20;;
69621;SDS011;56841;55.964;37.674;2023-06-14T05:17:54;10.00;;;3.40;;
69621;SDS011;56841;55.964;37.674;2023-06-14T05:20:21;8.18;;;3.42;;
69621;SDS011;56841;55.964;37.674;2023-06-14T05:22:54;8.07;;;3.20;;
69621;SDS011;56841;55.964;37.674;2023-06-14T05:25:20;7.13;;;3.22;;
69621;SDS011;56841;55.964;37.674;2023-06-14T05:27:46;7.57;;;3.40;;
69621;SDS011;56841;55.964;37.674;2023-06-14T05:30:13;9.85;;;3.40;;
69621;SDS011;56841;55.964;37.674;2023-06-14T05:32:39;7.10;;;3.30;;
69621;SDS011;56841;55.964;37.674;2023-06-14T05:35:05;6.93;;;3.10;;
69621;SDS011;56841;55.964;37.674;2023-06-14T05:37:31;6.53;;;3.10;;
69621;SDS011;56841;55.964;37.674;2023-06-14T05:39:57;5.97;;;3.35;;
69621;SDS011;56841;55.964;37.674;2023-06-14T05:42:23;6.78;;;3.13;;
69621;SDS011;56841;55.964;37.674;2023-06-14T05:44:49;6.35;;;2.72;;
69621;SDS011;56841;55.964;37.674;2023-06-14T05:47:14;9.20;;;3.80;;
69621;SDS011;56841;55.964;37.674;2023-06-14T05:49:40;7.43;;;3.20;;
69621;SDS011;56841;55.964;37.674;2023-06-14T05:52:06;6.90;;;3.00;;
69621;SDS011;56841;55.964;37.674;2023-06-14T05:54:32;6.03;;;2.97;;
69621;SDS011;56841;55.964;37.674;2023-06-14T05:56:57;9.45;;;3.10;;
69621;SDS011;56841;55.964;37.674;2023-06-14T05:59:27;6.38;;;3.10;;
69621;SDS011;56841;55.964;37.674;2023-06-14T06:01:53;9.95;;;2.92;;
69621;SDS011;56841;55.964;37.674;2023-06-14T06:04:18;7.13;;;3.00;;
69621;SDS011;56841;55.964;37.674;2023-06-14T06:06:45;9.45;;;3.20;;
69621;SDS011;56841;55.964;37.674;2023-06-14T06:09:10;5.88;;;3.20;;
69621;SDS011;56841;55.964;37.674;2023-06-14T06:11:36;6.57;;;3.25;;
69621;SDS011;56841;55.964;37.674;2023-06-14T06:14:01;7.13;;;2.72;;
69621;SDS011;56841;55.964;37.674;2023-06-14T06:16:27;9.90;;;3.40;;
69621;SDS011;56841;55.964;37.674;2023-06-14T06:18:53;9.43;;;3.03;;
69621;SDS011;56841;55.964;37.674;2023-06-14T06:21:18;8.40;;;2.50;;
69621;SDS011;56841;55.964;37.674;2023-06-14T06:23:44;7.53;;;2.70;;
69621;SDS011;56841;55.964;37.674;2023-06-14T06:26:09;9.43;;;2.92;;
69621;SDS011;56841;55.964;37.674;2023-06-14T06:28:35;10.07;;;4.70;;
69621;SDS011;56841;55.964;37.674;2023-06-14T06:31:01;7.35;;;2.45;;
69621;SDS011;56841;55.964;37.674;2023-06-14T06:33:26;9.25;;;3.00;;
69621;SDS011;56841;55.964;37.674;2023-06-14T06:35:52;7.07;;;2.42;;
69621;SDS011;56841;55.964;37.674;2023-06-14T06:38:17;6.90;;;2.50;;
69621;SDS011;56841;55.964;37.674;2023-06-14T06:40:44;5.95;;;2.60;;
69621;SDS011;56841;55.964;37.674;2023-06-14T06:43:09;5.38;;;2.25;;
69621;SDS011;56841;55.964;37.674;2023-06-14T06:45:43;6.60;;;1.95;;
69621;SDS011;56841;55.964;37.674;2023-06-14T06:48:09;4.68;;;1.90;;
69621;SDS011;56841;55.964;37.674;2023-06-14T06:50:35;3.60;;;1.92;;
69621;SDS011;56841;55.964;37.674;2023-06-14T06:53:01;5.05;;;2.10;;
69621;SDS011;56841;55.964;37.674;2023-06-14T06:55:27;8.82;;;2.20;;
69621;SDS011;56841;55.964;37.674;2023-06-14T06:57:53;6.72;;;2.17;;
69621;SDS011;56841;55.964;37.674;2023-06-14T07:00:19;5.60;;;2.40;;
69621;SDS011;56841;55.964;37.674;2023-06-14T07:02:46;4.63;;;2.03;;
69621;SDS011;56841;55.964;37.674;2023-06-14T07:05:12;5.32;;;2.38;;
69621;SDS011;56841;55.964;37.674;2023-06-14T07:07:38;6.15;;;2.28;;
69621;SDS011;56841;55.964;37.674;2023-06-14T07:10:04;4.63;;;2.10;;
69621;SDS011;56841;55.964;37.674;2023-06-14T07:12:31;4.35;;;1.90;;
69621;SDS011;56841;55.964;37.674;2023-06-14T07:14:59;5.50;;;2.08;;
69621;SDS011;56841;55.964;37.674;2023-06-14T07:17:25;5.45;;;2.05;;
69621;SDS011;56841;55.964;37.674;2023-06-14T07:19:51;5.47;;;2.17;;
69621;SDS011;56841;55.964;37.674;2023-06-14T07:22:17;8.55;;;2.30;;
69621;SDS011;56841;55.964;37.674;2023-06-14T07:24:43;4.35;;;1.90;;
69621;SDS011;56841;55.964;37.674;2023-06-14T07:27:08;10.40;;;2.92;;
69621;SDS011;56841;55.964;37.674;2023-06-14T07:29:34;8.18;;;2.13;;
69621;SDS011;56841;55.964;37.674;2023-06-14T07:32:00;5.85;;;2.03;;
69621;SDS011;56841;55.964;37.674;2023-06-14T07:34:25;4.97;;;2.05;;
69621;SDS011;56841;55.964;37.674;2023-06-14T07:36:51;4.32;;;2.20;;
69621;SDS011;56841;55.964;37.674;2023-06-14T07:39:17;6.30;;;2.45;;
69621;SDS011;56841;55.964;37.674;2023-06-14T07:41:42;5.75;;;2.50;;
69621;SDS011;56841;55.964;37.674;2023-06-14T07:44:08;6.45;;;2.20;;
69621;SDS011;56841;55.964;37.674;2023-06-14T07:46:33;6.63;;;2.20;;
69621;SDS011;56841;55.964;37.674;2023-06-14T07:48:59;3.90;;;2.13;;
69621;SDS011;56841;55.964;37.674;2023-06-14T07:51:25;7.82;;;2.10;;
69621;SDS011;56841;55.964;37.674;2023-06-14T07:53:51;6.05;;;2.15;;
69621;SDS011;56841;55.964;37.674;2023-06-14T07:56:16;5.57;;;2.20;;
69621;SDS011;56841;55.964;37.674;2023-06-14T07:58:42;6.50;;;2.92;;
69621;SDS011;56841;55.964;37.674;2023-06-14T08:01:08;5.38;;;2.85;;
69621;SDS011;56841;55.964;37.674;2023-06-14T08:03:35;5.50;;;3.28;;
69621;SDS011;56841;55.964;37.674;2023-06-14T08:06:00;6.15;;;3.65;;
69621;SDS011;56841;55.964;37.674;2023-06-14T08:08:26;4.70;;;2.22;;
69621;SDS011;56841;55.964;37.674;2023-06-14T08:10:52;6.97;;;2.80;;
69621;SDS011;56841;55.964;37.674;2023-06-14T08:13:17;4.35;;;2.60;;
69621;SDS011;56841;55.964;37.674;2023-06-14T08:15:43;6.47;;;2.80;;
69621;SDS011;56841;55.964;37.674;2023-06-14T08:18:09;4.60;;;1.98;;
69621;SDS011;56841;55.964;37.674;2023-06-14T08:20:35;5.45;;;2.45;;
69621;SDS011;56841;55.964;37.674;2023-06-14T08:23:02;7.38;;;2.97;;
69621;SDS011;56841;55.964;37.674;2023-06-14T08:25:29;6.80;;;3.13;;
69621;SDS011;56841;55.964;37.674;2023-06-14T08:27:55;4.47;;;2.40;;
69621;SDS011;56841;55.964;37.674;2023-06-14T08:30:21;6.55;;;2.90;;
69621;SDS011;56841;55.964;37.674;2023-06-14T08:32:47;11.75;;;3.95;;
69621;SDS011;56841;55.964;37.674;2023-06-14T08:35:13;5.72;;;3.15;;
69621;SDS011;56841;55.964;37.674;2023-06-14T08:37:39;4.20;;;2.25;;
69621;SDS011;56841;55.964;37.674;2023-06-14T08:40:27;4.35;;;2.30;;
69621;SDS011;56841;55.964;37.674;2023-06-14T08:42:55;5.93;;;3.40;;
69621;SDS011;56841;55.964;37.674;2023-06-14T08:45:21;12.60;;;6.80;;
69621;SDS011;56841;55.964;37.674;2023-06-14T08:47:48;7.70;;;4.35;;
69621;SDS011;56841;55.964;37.674;2023-06-14T08:50:23;5.20;;;2.30;;
69621;SDS011;56841;55.964;37.674;2023-06-14T08:52:52;4.40;;;2.22;;
69621;SDS011;56841;55.964;37.674;2023-06-14T08:55:21;6.65;;;2.40;;
69621;SDS011;56841;55.964;37.674;2023-06-14T08:57:51;5.30;;;2.20;;
69621;SDS011;56841;55.964;37.674;2023-06-14T09:00:19;6.13;;;2.00;;
69621;SDS011;56841;55.964;37.674;2023-06-14T09:02:46;5.85;;;2.33;;
69621;SDS011;56841;55.964;37.674;2023-06-14T09:05:12;5.20;;;2.28;;
69621;SDS011;56841;55.964;37.674;2023-06-14T09:07:41;5.50;;;2.40;;
69621;SDS011;56841;55.964;37.674;2023-06-14T09:10:08;4.38;;;2.30;;
69621;SDS011;56841;55.964;37.674;2023-06-14T09:12:37;5.18;;;2.40;;
69621;SDS011;56841;55.964;37.674;2023-06-14T09:15:04;4.80;;;2.42;;
69621;SDS011;56841;55.964;37.674;2023-06-14T09:17:37;6.15;;;2.80;;
69621;SDS011;56841;55.964;37.674;2023-06-14T09:20:04;4.43;;;2.38;;
69621;SDS011;56841;55.964;37.674;2023-06-14T09:22:32;7.15;;;2.88;;
69621;SDS011;56841;55.964;37.674;2023-06-14T09:24:58;6.40;;;3.30;;
69621;SDS011;56841;55.964;37.674;2023-06-14T09:27:27;8.05;;;3.05;;
69621;SDS011;56841;55.964;37.674;2023-06-14T09:29:54;6.70;;;3.35;;
69621;SDS011;56841;55.964;37.674;2023-06-14T09:32:22;4.72;;;2.53;;
69621;SDS011;56841;55.964;37.674;2023-06-14T09:34:48;10.90;;;5.15;;
69621;SDS011;56841;55.964;37.674;2023-06-14T09:37:29;8.18;;;4.20;;
69621;SDS011;56841;55.964;37.674;2023-06-14T09:39:56;6.82;;;3.22;;
69621;SDS011;56841;55.964;37.674;2023-06-14T09:42:23;5.32;;;2.40;;
69621;SDS011;56841;55.964;37.674;2023-06-14T09:44:51;4.15;;;2.50;;
69621;SDS011;56841;55.964;37.674;2023-06-14T09:47:19;9.65;;;4.03;;
69621;SDS011;56841;55.964;37.674;2023-06-14T09:49:45;6.47;;;3.00;;
69621;SDS011;56841;55.964;37.674;2023-06-14T09:52:20;6.15;;;3.63;;
69621;SDS011;56841;55.964;37.674;2023-06-14T09:54:48;7.68;;;3.60;;
69621;SDS011;56841;55.964;37.674;2023-06-14T09:57:15;5.28;;;2.72;;
69621;SDS011;56841;55.964;37.674;2023-06-14T09:59:48;7.65;;;3.15;;
69621;SDS011;56841;55.964;37.674;2023-06-14T10:02:25;8.98;;;4.70;;
69621;SDS011;56841;55.964;37.674;2023-06-14T10:05:02;10.30;;;6.60;;
69621;SDS011;56841;55.964;37.674;2023-06-14T10:07:35;4.50;;;2.20;;
69621;SDS011;56841;55.964;37.674;2023-06-14T10:10:06;7.40;;;3.70;;
69621;SDS011;56841;55.964;37.674;2023-06-14T10:12:32;7.40;;;2.30;;
69621;SDS011;56841;55.964;37.674;2023-06-14T10:14:58;5.68;;;3.13;;
69621;SDS011;56841;55.964;37.674;2023-06-14T10:17:35;5.68;;;2.35;;
69621;SDS011;56841;55.964;37.674;2023-06-14T10:20:14;3.85;;;2.28;;
69621;SDS011;56841;55.964;37.674;2023-06-14T10:22:49;6.93;;;2.20;;
69621;SDS011;56841;55.964;37.674;2023-06-14T10:25:28;4.10;;;2.00;;
69621;SDS011;56841;55.964;37.674;2023-06-14T10:38:59;5.20;;;2.35;;
69621;SDS011;56841;55.964;37.674;2023-06-14T10:41:50;7.82;;;3.58;;
69621;SDS011;56841;55.964;37.674;2023-06-14T10:46:46;5.85;;;2.63;;
69621;SDS011;56841;55.964;37.674;2023-06-14T10:49:15;5.43;;;2.33;;
69621;SDS011;56841;55.964;37.674;2023-06-14T10:54:13;4.70;;;2.10;;
69621;SDS011;56841;55.964;37.674;2023-06-14T10:56:45;5.60;;;2.42;;
69621;SDS011;56841;55.964;37.674;2023-06-14T10:59:12;4.70;;;2.10;;
69621;SDS011;56841;55.964;37.674;2023-06-14T11:01:40;5.22;;;2.30;;
69621;SDS011;56841;55.964;37.674;2023-06-14T11:04:14;4.80;;;2.22;;
69621;SDS011;56841;55.964;37.674;2023-06-14T11:06:49;9.38;;;5.00;;
69621;SDS011;56841;55.964;37.674;2023-06-14T11:12:19;17.25;;;9.27;;
69621;SDS011;56841;55.964;37.674;2023-06-14T11:14:46;9.32;;;6.38;;
69621;SDS011;56841;55.964;37.674;2023-06-14T11:17:13;3.30;;;2.20;;
69621;SDS011;56841;55.964;37.674;2023-06-14T11:19:38;4.65;;;2.20;;
69621;SDS011;56841;55.964;37.674;2023-06-14T11:22:04;4.28;;;2.28;;
69621;SDS011;56841;55.964;37.674;2023-06-14T11:24:32;6.15;;;2.40;;
69621;SDS011;56841;55.964;37.674;2023-06-14T11:26:58;6.10;;;3.15;;
69621;SDS011;56841;55.964;37.674;2023-06-14T11:29:23;5.28;;;2.50;;
69621;SDS011;56841;55.964;37.674;2023-06-14T11:31:50;5.20;;;2.75;;
69621;SDS011;56841;55.964;37.674;2023-06-14T11:34:15;5.20;;;2.35;;
69621;SDS011;56841;55.964;37.674;2023-06-14T11:36:42;3.70;;;2.55;;
69621;SDS011;56841;55.964;37.674;2023-06-14T11:39:08;5.28;;;2.30;;
69621;SDS011;56841;55.964;37.674;2023-06-14T11:41:43;7.00;;;3.85;;
69621;SDS011;56841;55.964;37.674;2023-06-14T11:44:10;5.72;;;2.92;;
69621;SDS011;56841;55.964;37.674;2023-06-14T11:46:37;7.38;;;3.78;;
69621;SDS011;56841;55.964;37.674;2023-06-14T11:49:03;4.97;;;3.10;;
69621;SDS011;56841;55.964;37.674;2023-06-14T11:51:30;4.90;;;2.47;;
69621;SDS011;56841;55.964;37.674;2023-06-14T11:53:57;4.75;;;3.15;;
69621;SDS011;56841;55.964;37.674;2023-06-14T11:56:23;8.00;;;3.90;;
69621;SDS011;56841;55.964;37.674;2023-06-14T11:58:50;4.57;;;2.75;;
69621;SDS011;56841;55.964;37.674;2023-06-14T12:01:16;5.85;;;2.90;;
69621;SDS011;56841;55.964;37.674;2023-06-14T12:03:49;3.88;;;2.97;;
69621;SDS011;56841;55.964;37.674;2023-06-14T12:06:15;4.55;;;2.90;;
69621;SDS011;56841;55.964;37.674;2023-06-14T12:08:43;6.55;;;2.83;;
69621;SDS011;56841;55.964;37.674;2023-06-14T12:11:14;5.88;;;2.80;;
69621;SDS011;56841;55.964;37.674;2023-06-14T12:13:40;5.78;;;3.42;;
69621;SDS011;56841;55.964;37.674;2023-06-14T12:16:10;5.20;;;2.70;;
69621;SDS011;56841;55.964;37.674;2023-06-14T12:18:37;8.80;;;3.40;;
69621;SDS011;56841;55.964;37.674;2023-06-14T12:21:05;3.08;;;2.25;;
69621;SDS011;56841;55.964;37.674;2023-06-14T12:24:05;8.38;;;3.22;;
69621;SDS011;56841;55.964;37.674;2023-06-14T12:26:23;4.90;;;2.92;;
69621;SDS011;56841;55.964;37.674;2023-06-14T12:28:51;4.85;;;2.97;;
69621;SDS011;56841;55.964;37.674;2023-06-14T12:31:17;6.57;;;3.92;;
69621;SDS011;56841;55.964;37.674;2023-06-14T12:33:44;5.43;;;2.42;;
69621;SDS011;56841;55.964;37.674;2023-06-14T12:36:14;4.10;;;2.38;;
69621;SDS011;56841;55.964;37.674;2023-06-14T12:38:40;5.55;;;2.90;;
69621;SDS011;56841;55.964;37.674;2023-06-14T12:41:06;4.60;;;3.45;;
69621;SDS011;56841;55.964;37.674;2023-06-14T12:43:32;4.88;;;2.88;;
69621;SDS011;56841;55.964;37.674;2023-06-14T12:45:59;4.93;;;2.63;;
69621;SDS011;56841;55.964;37.674;2023-06-14T12:48:25;5.38;;;2.90;;
69621;SDS011;56841;55.964;37.674;2023-06-14T12:50:52;5.47;;;2.90;;
69621;SDS011;56841;55.964;37.674;2023-06-14T12:53:18;4.93;;;2.47;;
69621;SDS011;56841;55.964;37.674;2023-06-14T12:55:43;6.00;;;2.45;;
69621;SDS011;56841;55.964;37.674;2023-06-14T12:58:09;6.57;;;4.20;;
69621;SDS011;56841;55.964;37.674;2023-06-14T13:00:37;5.80;;;2.53;;
69621;SDS011;56841;55.964;37.674;2023-06-14T13:03:03;5.53;;;2.45;;
69621;SDS011;56841;55.964;37.674;2023-06-14T13:05:29;7.25;;;4.22;;
69621;SDS011;56841;55.964;37.674;2023-06-14T13:07:56;6.15;;;2.80;;
69621;SDS011;56841;55.964;37.674;2023-06-14T13:10:22;6.13;;;2.70;;
69621;SDS011;56841;55.964;37.674;2023-06-14T13:12:47;5.82;;;2.75;;
69621;SDS011;56841;55.964;37.674;2023-06-14T13:15:13;8.63;;;4.68;;
69621;SDS011;56841;55.964;37.674;2023-06-14T13:17:39;6.10;;;2.95;;
69621;SDS011;56841;55.964;37.674;2023-06-14T13:20:08;4.80;;;2.58;;
69621;SDS011;56841;55.964;37.674;2023-06-14T13:22:34;4.65;;;2.55;;
69621;SDS011;56841;55.964;37.674;2023-06-14T13:25:01;8.95;;;4.50;;
69621;SDS011;56841;55.964;37.674;2023-06-14T13:27:28;8.93;;;3.78;;
69621;SDS011;56841;55.964;37.674;2023-06-14T13:29:53;5.38;;;3.10;;
69621;SDS011;56841;55.964;37.674;2023-06-14T13:32:22;9.48;;;5.38;;
69621;SDS011;56841;55.964;37.674;2023-06-14T13:34:49;7.65;;;5.20;;
69621;SDS011;56841;55.964;37.674;2023-06-14T13:37:14;6.80;;;3.83;;
69621;SDS011;56841;55.964;37.674;2023-06-14T13:39:40;5.28;;;3.03;;
69621;SDS011;56841;55.964;37.674;2023-06-14T13:42:06;11.93;;;6.45;;
69621;SDS011;56841;55.964;37.674;2023-06-14T13:44:32;7.32;;;5.47;;
69621;SDS011;56841;55.964;37.674;2023-06-14T13:46:57;6.78;;;3.08;;
69621;SDS011;56841;55.964;37.674;2023-06-14T13:49:23;5.32;;;2.88;;
69621;SDS011;56841;55.964;37.674;2023-06-14T13:51:49;5.10;;;2.63;;
69621;SDS011;56841;55.964;37.674;2023-06-14T13:54:14;9.07;;;6.35;;
69621;SDS011;56841;55.964;37.674;2023-06-14T13:56:40;8.65;;;5.32;;
69621;SDS011;56841;55.964;37.674;2023-06-14T13:59:06;7.15;;;3.55;;
69621;SDS011;56841;55.964;37.674;2023-06-14T14:01:32;9.60;;;5.78;;
69621;SDS011;56841;55.964;37.674;2023-06-14T14:03:58;6.40;;;3.45;;
69621;SDS011;56841;55.964;37.674;2023-06-14T14:06:26;11.68;;;5.07;;
69621;SDS011;56841;55.964;37.674;2023-06-14T14:08:52;6.15;;;3.03;;
69621;SDS011;56841;55.964;37.674;2023-06-14T14:11:18;7.10;;;3.22;;
69621;SDS011;56841;55.964;37.674;2023-06-14T14:13:44;6.72;;;3.33;;
69621;SDS011;56841;55.964;37.674;2023-06-14T14:16:10;7.15;;;4.20;;
69621;SDS011;56841;55.964;37.674;2023-06-14T14:18:36;5.18;;;2.75;;
69621;SDS011;56841;55.964;37.674;2023-06-14T14:21:02;7.63;;;3.10;;
69621;SDS011;56841;55.964;37.674;2023-06-14T14:23:28;5.53;;;2.78;;
69621;SDS011;56841;55.964;37.674;2023-06-14T14:25:54;6.90;;;3.80;;
69621;SDS011;56841;55.964;37.674;2023-06-14T14:28:19;8.50;;;4.53;;
69621;SDS011;56841;55.964;37.674;2023-06-14T14:30:46;4.97;;;3.40;;
69621;SDS011;56841;55.964;37.674;2023-06-14T14:33:15;7.60;;;3.00;;
69621;SDS011;56841;55.964;37.674;2023-06-14T14:35:42;4.90;;;2.55;;
69621;SDS011;56841;55.964;37.674;2023-06-14T14:38:11;5.03;;;3.03;;
69621;SDS011;56841;55.964;37.674;2023-06-14T14:40:38;6.15;;;3.00;;
69621;SDS011;56841;55.964;37.674;2023-06-14T14:43:05;10.45;;;4.32;;
69621;SDS011;56841;55.964;37.674;2023-06-14T14:45:31;8.77;;;2.80;;
69621;SDS011;56841;55.964;37.674;2023-06-14T14:47:56;5.63;;;3.30;;
69621;SDS011;56841;55.964;37.674;2023-06-14T14:50:22;8.73;;;3.05;;
69621;SDS011;56841;55.964;37.674;2023-06-14T14:52:48;5.47;;;2.60;;
69621;SDS011;56841;55.964;37.674;2023-06-14T14:55:13;7.93;;;2.95;;
69621;SDS011;56841;55.964;37.674;2023-06-14T14:57:39;4.03;;;2.50;;